sensor_id;sensor_type;location;lat;lon;timestamp;pressure;altitude;pressure_sealevel;temperature;humidity
17521;BME280;8878;-33.370;-70.552;2023-11-18T00:00:52;92593.09;;;13.43;92.95
17521;BME280;8878;-33.370;-70.552;2023-11-18T00:03:22;92588.09;;;13.37;91.85
17521;BME280;8878;-33.370;-70.552;2023-11-18T00:05:53;92595.56;;;13.24;94.63
17521;BME280;8878;-33.370;-70.552;2023-11-18T00:08:22;92593.47;;;13.16;96.17
17521;BME280;8878;-33.370;-70.552;2023-11-18T00:10:52;92590.03;;;13.11;96.78
17521;BME280;8878;-33.370;-70.552;2023-11-18T00:13:21;92599.31;;;13.03;96.56
17521;BME280;8878;-33.370;-70.552;2023-11-18T00:15:50;92597.72;;;13.02;96.99
17521;BME280;8878;-33.370;-70.552;2023-11-18T00:18:20;92604.13;;;12.91;98.14
17521;BME280;8878;-33.370;-70.552;2023-11-18T00:20:50;92606.25;;;12.74;99.64
17521;BME280;8878;-33.370;-70.552;2023-11-18T00:23:21;92599.38;;;12.57;100.00
17521;BME280;8878;-33.370;-70.552;2023-11-18T00:25:51;92602.84;;;12.53;100.00
17521;BME280;8878;-33.370;-70.552;2023-11-18T00:28:20;92605.50;;;12.48;100.00
17521;BME280;8878;-33.370;-70.552;2023-11-18T00:30:50;92617.66;;;12.44;100.00
17521;BME280;8878;-33.370;-70.552;2023-11-18T00:33:19;92603.38;;;12.40;100.00
17521;BME280;8878;-33.370;-70.552;2023-11-18T00:35:48;92606.03;;;12.40;100.00
17521;BME280;8878;-33.370;-70.552;2023-11-18T00:38:17;92612.63;;;12.37;100.00
17521;BME280;8878;-33.370;-70.552;2023-11-18T00:40:49;92605.75;;;12.36;100.00
17521;BME280;8878;-33.370;-70.552;2023-11-18T00:43:18;92600.22;;;12.28;100.00
17521;BME280;8878;-33.370;-70.552;2023-11-18T00:45:48;92603.41;;;12.14;100.00
17521;BME280;8878;-33.370;-70.552;2023-11-18T00:48:18;92601.78;;;12.08;100.00
17521;BME280;8878;-33.370;-70.552;2023-11-18T00:50:47;92606.81;;;12.10;100.00
17521;BME280;8878;-33.370;-70.552;2023-11-18T00:53:16;92598.09;;;12.04;100.00
17521;BME280;8878;-33.370;-70.552;2023-11-18T00:55:47;92591.75;;;12.00;100.00
17521;BME280;8878;-33.370;-70.552;2023-11-18T00:58:17;92586.69;;;11.89;100.00
17521;BME280;8878;-33.370;-70.552;2023-11-18T01:00:47;92576.91;;;11.84;100.00
17521;BME280;8878;-33.370;-70.552;2023-11-18T01:03:16;92580.88;;;11.82;100.00
17521;BME280;8878;-33.370;-70.552;2023-11-18T01:05:45;92578.69;;;11.73;100.00
17521;BME280;8878;-33.370;-70.552;2023-11-18T01:08:23;92570.78;;;11.63;100.00
17521;BME280;8878;-33.370;-70.552;2023-11-18T01:10:59;92570.22;;;11.61;100.00
17521;BME280;8878;-33.370;-70.552;2023-11-18T01:13:31;92566.53;;;11.62;100.00
17521;BME280;8878;-33.370;-70.552;2023-11-18T01:16:00;92549.59;;;11.58;100.00
17521;BME280;8878;-33.370;-70.552;2023-11-18T01:18:31;92556.22;;;11.51;100.00
17521;BME280;8878;-33.370;-70.552;2023-11-18T01:21:00;92549.84;;;11.47;100.00
17521;BME280;8878;-33.370;-70.552;2023-11-18T01:23:29;92554.84;;;11.38;100.00
17521;BME280;8878;-33.370;-70.552;2023-11-18T01:26:00;92559.50;;;11.06;100.00
17521;BME280;8878;-33.370;-70.552;2023-11-18T01:28:31;92560.56;;;11.10;100.00
17521;BME280;8878;-33.370;-70.552;2023-11-18T01:31:03;92566.38;;;11.07;100.00
17521;BME280;8878;-33.370;-70.552;2023-11-18T01:33:34;92571.31;;;10.93;100.00
17521;BME280;8878;-33.370;-70.552;2023-11-18T01:36:05;92570.56;;;11.03;100.00
17521;BME280;8878;-33.370;-70.552;2023-11-18T01:38:35;92575.28;;;10.95;100.00
17521;BME280;8878;-33.370;-70.552;2023-11-18T01:41:07;92586.06;;;10.84;100.00
17521;BME280;8878;-33.370;-70.552;2023-11-18T01:43:36;92592.91;;;10.80;100.00
17521;BME280;8878;-33.370;-70.552;2023-11-18T01:46:09;92584.78;;;10.96;100.00
17521;BME280;8878;-33.370;-70.552;2023-11-18T01:48:40;92584.81;;;11.02;100.00
17521;BME280;8878;-33.370;-70.552;2023-11-18T01:51:10;92567.09;;;10.92;100.00
17521;BME280;8878;-33.370;-70.552;2023-11-18T01:53:43;92561.75;;;10.77;100.00
17521;BME280;8878;-33.370;-70.552;2023-11-18T01:56:16;92553.28;;;10.75;100.00
17521;BME280;8878;-33.370;-70.552;2023-11-18T01:58:47;92556.78;;;10.85;100.00
17521;BME280;8878;-33.370;-70.552;2023-11-18T02:01:17;92560.41;;;10.74;100.00
17521;BME280;8878;-33.370;-70.552;2023-11-18T02:03:47;92563.59;;;10.76;100.00
17521;BME280;8878;-33.370;-70.552;2023-11-18T02:06:16;92557.75;;;10.74;100.00
17521;BME280;8878;-33.370;-70.552;2023-11-18T02:08:46;92555.16;;;10.79;100.00
17521;BME280;8878;-33.370;-70.552;2023-11-18T02:11:23;92560.59;;;10.63;100.00
17521;BME280;8878;-33.370;-70.552;2023-11-18T02:14:00;92563.44;;;10.51;100.00
17521;BME280;8878;-33.370;-70.552;2023-11-18T02:16:32;92564.53;;;10.55;100.00
17521;BME280;8878;-33.370;-70.552;2023-11-18T02:19:03;92565.63;;;10.64;100.00
17521;BME280;8878;-33.370;-70.552;2023-11-18T02:21:37;92571.47;;;10.71;100.00
17521;BME280;8878;-33.370;-70.552;2023-11-18T02:24:08;92568.03;;;10.71;100.00
17521;BME280;8878;-33.370;-70.552;2023-11-18T02:26:40;92569.78;;;10.50;100.00
17521;BME280;8878;-33.370;-70.552;2023-11-18T02:29:09;92572.91;;;10.47;100.00
17521;BME280;8878;-33.370;-70.552;2023-11-18T02:31:38;92568.38;;;10.37;100.00
17521;BME280;8878;-33.370;-70.552;2023-11-18T02:34:12;92567.78;;;10.30;100.00
17521;BME280;8878;-33.370;-70.552;2023-11-18T02:36:46;92574.41;;;10.38;100.00
17521;BME280;8878;-33.370;-70.552;2023-11-18T02:39:22;92559.16;;;10.45;100.00
17521;BME280;8878;-33.370;-70.552;2023-11-18T02:41:54;92558.66;;;10.48;100.00
17521;BME280;8878;-33.370;-70.552;2023-11-18T02:44:25;92548.38;;;10.46;100.00
17521;BME280;8878;-33.370;-70.552;2023-11-18T02:46:55;92546.25;;;10.43;100.00
17521;BME280;8878;-33.370;-70.552;2023-11-18T02:49:27;92550.38;;;10.29;100.00
17521;BME280;8878;-33.370;-70.552;2023-11-18T02:52:03;92556.38;;;10.19;100.00
17521;BME280;8878;-33.370;-70.552;2023-11-18T02:54:32;92546.38;;;10.22;100.00
17521;BME280;8878;-33.370;-70.552;2023-11-18T02:57:03;92535.06;;;10.26;100.00
17521;BME280;8878;-33.370;-70.552;2023-11-18T02:59:33;92533.47;;;10.25;100.00
17521;BME280;8878;-33.370;-70.552;2023-11-18T03:02:02;92528.84;;;10.10;100.00
17521;BME280;8878;-33.370;-70.552;2023-11-18T03:04:33;92530.91;;;10.03;100.00
17521;BME280;8878;-33.370;-70.552;2023-11-18T03:07:02;92520.41;;;10.08;100.00
17521;BME280;8878;-33.370;-70.552;2023-11-18T03:09:33;92523.38;;;10.17;100.00
17521;BME280;8878;-33.370;-70.552;2023-11-18T03:12:07;92527.91;;;10.22;100.00
17521;BME280;8878;-33.370;-70.552;2023-11-18T03:14:36;92515.25;;;10.24;100.00
17521;BME280;8878;-33.370;-70.552;2023-11-18T03:17:06;92510.16;;;10.12;100.00
17521;BME280;8878;-33.370;-70.552;2023-11-18T03:19:36;92507.88;;;10.20;100.00
17521;BME280;8878;-33.370;-70.552;2023-11-18T03:22:06;92506.81;;;10.22;100.00
17521;BME280;8878;-33.370;-70.552;2023-11-18T03:24:35;92501.81;;;10.25;100.00
17521;BME280;8878;-33.370;-70.552;2023-11-18T03:27:07;92488.22;;;10.01;100.00
17521;BME280;8878;-33.370;-70.552;2023-11-18T03:29:37;92477.03;;;9.89;100.00
17521;BME280;8878;-33.370;-70.552;2023-11-18T03:32:07;92477.78;;;9.79;100.00
17521;BME280;8878;-33.370;-70.552;2023-11-18T03:34:36;92463.84;;;9.84;100.00
17521;BME280;8878;-33.370;-70.552;2023-11-18T03:37:05;92470.97;;;9.89;100.00
17521;BME280;8878;-33.370;-70.552;2023-11-18T03:39:35;92470.19;;;9.88;100.00
17521;BME280;8878;-33.370;-70.552;2023-11-18T03:42:06;92460.22;;;9.95;100.00
17521;BME280;8878;-33.370;-70.552;2023-11-18T03:44:35;92462.06;;;9.95;100.00
17521;BME280;8878;-33.370;-70.552;2023-11-18T03:47:05;92463.13;;;9.94;100.00
17521;BME280;8878;-33.370;-70.552;2023-11-18T03:49:34;92452.81;;;9.87;100.00
17521;BME280;8878;-33.370;-70.552;2023-11-18T03:52:04;92460.16;;;9.85;100.00
17521;BME280;8878;-33.370;-70.552;2023-11-18T03:54:33;92458.06;;;9.87;100.00
17521;BME280;8878;-33.370;-70.552;2023-11-18T03:57:02;92445.88;;;9.81;100.00
17521;BME280;8878;-33.370;-70.552;2023-11-18T03:59:34;92443.78;;;9.78;100.00
17521;BME280;8878;-33.370;-70.552;2023-11-18T04:02:03;92439.56;;;9.82;100.00
17521;BME280;8878;-33.370;-70.552;2023-11-18T04:04:33;92439.56;;;9.82;100.00
17521;BME280;8878;-33.370;-70.552;2023-11-18T04:07:02;92436.41;;;9.80;100.00
17521;BME280;8878;-33.370;-70.552;2023-11-18T04:09:33;92438.78;;;9.81;100.00
17521;BME280;8878;-33.370;-70.552;2023-11-18T04:12:02;92436.69;;;9.83;100.00
17521;BME280;8878;-33.370;-70.552;2023-11-18T04:14:34;92432.13;;;9.74;100.00
17521;BME280;8878;-33.370;-70.552;2023-11-18T04:17:05;92440.25;;;9.67;100.00
17521;BME280;8878;-33.370;-70.552;2023-11-18T04:19:35;92440.00;;;9.64;100.00
17521;BME280;8878;-33.370;-70.552;2023-11-18T04:22:06;92436.81;;;9.62;100.00
17521;BME280;8878;-33.370;-70.552;2023-11-18T04:24:36;92440.44;;;9.56;100.00
17521;BME280;8878;-33.370;-70.552;2023-11-18T04:27:05;92442.50;;;9.49;100.00
17521;BME280;8878;-33.370;-70.552;2023-11-18T04:29:36;92433.00;;;9.48;100.00
17521;BME280;8878;-33.370;-70.552;2023-11-18T04:32:07;92421.41;;;9.43;100.00
17521;BME280;8878;-33.370;-70.552;2023-11-18T04:34:37;92415.09;;;9.45;100.00
17521;BME280;8878;-33.370;-70.552;2023-11-18T04:37:06;92416.38;;;9.42;100.00
17521;BME280;8878;-33.370;-70.552;2023-11-18T04:39:36;92414.78;;;9.41;100.00
17521;BME280;8878;-33.370;-70.552;2023-11-18T04:42:05;92415.34;;;9.43;100.00
17521;BME280;8878;-33.370;-70.552;2023-11-18T04:44:37;92405.59;;;9.43;100.00
17521;BME280;8878;-33.370;-70.552;2023-11-18T04:47:06;92405.25;;;9.35;100.00
17521;BME280;8878;-33.370;-70.552;2023-11-18T04:49:37;92400.28;;;9.38;100.00
17521;BME280;8878;-33.370;-70.552;2023-11-18T04:52:07;92400.56;;;9.37;100.00
17521;BME280;8878;-33.370;-70.552;2023-11-18T04:54:37;92400.47;;;9.27;100.00
17521;BME280;8878;-33.370;-70.552;2023-11-18T04:57:06;92391.22;;;9.24;100.00
17521;BME280;8878;-33.370;-70.552;2023-11-18T04:59:37;92397.00;;;9.21;100.00
17521;BME280;8878;-33.370;-70.552;2023-11-18T05:02:06;92389.09;;;9.21;100.00
17521;BME280;8878;-33.370;-70.552;2023-11-18T05:04:36;92383.28;;;9.19;100.00
17521;BME280;8878;-33.370;-70.552;2023-11-18T05:07:05;92376.41;;;9.13;100.00
17521;BME280;8878;-33.370;-70.552;2023-11-18T05:09:34;92370.88;;;9.15;100.00
17521;BME280;8878;-33.370;-70.552;2023-11-18T05:12:04;92378.22;;;9.13;100.00
17521;BME280;8878;-33.370;-70.552;2023-11-18T05:14:36;92366.34;;;9.10;100.00
17521;BME280;8878;-33.370;-70.552;2023-11-18T05:17:07;92377.94;;;9.09;100.00
17521;BME280;8878;-33.370;-70.552;2023-11-18T05:19:35;92367.09;;;9.00;100.00
17521;BME280;8878;-33.370;-70.552;2023-11-18T05:22:04;92365.72;;;8.98;100.00
17521;BME280;8878;-33.370;-70.552;2023-11-18T05:24:34;92361.84;;;9.06;100.00
17521;BME280;8878;-33.370;-70.552;2023-11-18T05:27:03;92353.19;;;9.10;100.00
17521;BME280;8878;-33.370;-70.552;2023-11-18T05:29:33;92354.28;;;9.09;100.00
17521;BME280;8878;-33.370;-70.552;2023-11-18T05:32:04;92352.13;;;9.06;100.00
17521;BME280;8878;-33.370;-70.552;2023-11-18T05:34:34;92343.16;;;9.02;100.00
17521;BME280;8878;-33.370;-70.552;2023-11-18T05:37:03;92351.22;;;8.95;100.00
17521;BME280;8878;-33.370;-70.552;2023-11-18T05:39:32;92342.00;;;8.88;100.00
17521;BME280;8878;-33.370;-70.552;2023-11-18T05:42:09;92339.53;;;8.81;100.00
17521;BME280;8878;-33.370;-70.552;2023-11-18T05:44:39;92335.81;;;8.77;100.00
17521;BME280;8878;-33.370;-70.552;2023-11-18T05:47:11;92332.16;;;8.78;100.00
17521;BME280;8878;-33.370;-70.552;2023-11-18T05:49:41;92321.88;;;8.77;100.00
17521;BME280;8878;-33.370;-70.552;2023-11-18T05:52:10;92313.78;;;8.83;100.00
17521;BME280;8878;-33.370;-70.552;2023-11-18T05:54:39;92307.22;;;8.86;100.00
17521;BME280;8878;-33.370;-70.552;2023-11-18T05:57:09;92298.75;;;8.79;100.00
17521;BME280;8878;-33.370;-70.552;2023-11-18T05:59:38;92303.88;;;8.63;100.00
17521;BME280;8878;-33.370;-70.552;2023-11-18T06:02:07;92301.16;;;8.53;100.00
17521;BME280;8878;-33.370;-70.552;2023-11-18T06:04:41;92295.38;;;8.51;100.00
17521;BME280;8878;-33.370;-70.552;2023-11-18T06:07:10;92296.16;;;8.52;100.00
17521;BME280;8878;-33.370;-70.552;2023-11-18T06:09:40;92300.47;;;8.36;100.00
17521;BME280;8878;-33.370;-70.552;2023-11-18T06:12:10;92290.78;;;8.42;100.00
17521;BME280;8878;-33.370;-70.552;2023-11-18T06:14:40;92288.56;;;8.55;100.00
17521;BME280;8878;-33.370;-70.552;2023-11-18T06:17:11;92297.59;;;8.64;100.00
17521;BME280;8878;-33.370;-70.552;2023-11-18T06:19:43;92294.72;;;8.66;100.00
17521;BME280;8878;-33.370;-70.552;2023-11-18T06:22:12;92297.00;;;8.57;100.00
17521;BME280;8878;-33.370;-70.552;2023-11-18T06:24:42;92291.16;;;8.50;100.00
17521;BME280;8878;-33.370;-70.552;2023-11-18T06:27:11;92295.38;;;8.51;100.00
17521;BME280;8878;-33.370;-70.552;2023-11-18T06:29:40;92297.69;;;8.48;100.00
17521;BME280;8878;-33.370;-70.552;2023-11-18T06:32:09;92291.09;;;8.45;100.00
17521;BME280;8878;-33.370;-70.552;2023-11-18T06:34:39;92306.81;;;8.40;100.00
17521;BME280;8878;-33.370;-70.552;2023-11-18T06:37:10;92309.97;;;8.37;100.00
17521;BME280;8878;-33.370;-70.552;2023-11-18T06:39:42;92315.06;;;8.27;100.00
17521;BME280;8878;-33.370;-70.552;2023-11-18T06:42:14;92315.63;;;8.29;100.00
17521;BME280;8878;-33.370;-70.552;2023-11-18T06:44:44;92318.03;;;8.31;100.00
17521;BME280;8878;-33.370;-70.552;2023-11-18T06:47:15;92328.84;;;8.34;100.00
17521;BME280;8878;-33.370;-70.552;2023-11-18T06:49:46;92323.03;;;8.32;100.00
17521;BME280;8878;-33.370;-70.552;2023-11-18T06:52:18;92323.03;;;8.32;100.00
17521;BME280;8878;-33.370;-70.552;2023-11-18T06:54:48;92324.09;;;8.31;100.00
17521;BME280;8878;-33.370;-70.552;2023-11-18T06:57:18;92318.31;;;8.34;100.00
17521;BME280;8878;-33.370;-70.552;2023-11-18T06:59:48;92309.09;;;8.32;100.00
17521;BME280;8878;-33.370;-70.552;2023-11-18T07:02:17;92302.25;;;8.31;100.00
17521;BME280;8878;-33.370;-70.552;2023-11-18T07:04:47;92297.94;;;8.24;100.00
17521;BME280;8878;-33.370;-70.552;2023-11-18T07:07:19;92293.00;;;8.28;100.00
17521;BME280;8878;-33.370;-70.552;2023-11-18T07:09:48;92285.66;;;8.30;100.00
17521;BME280;8878;-33.370;-70.552;2023-11-18T07:12:19;92272.97;;;8.22;100.00
17521;BME280;8878;-33.370;-70.552;2023-11-18T07:14:49;92273.66;;;8.12;100.00
17521;BME280;8878;-33.370;-70.552;2023-11-18T07:17:18;92271.19;;;8.01;100.00
17521;BME280;8878;-33.370;-70.552;2023-11-18T07:19:47;92267.00;;;8.05;100.00
17521;BME280;8878;-33.370;-70.552;2023-11-18T07:22:18;92258.84;;;8.01;100.00
17521;BME280;8878;-33.370;-70.552;2023-11-18T07:24:47;92251.44;;;7.98;100.00
17521;BME280;8878;-33.370;-70.552;2023-11-18T07:27:17;92251.69;;;7.97;100.00
17521;BME280;8878;-33.370;-70.552;2023-11-18T07:29:47;92247.28;;;8.02;100.00
17521;BME280;8878;-33.370;-70.552;2023-11-18T07:32:16;92243.66;;;7.81;100.00
17521;BME280;8878;-33.370;-70.552;2023-11-18T07:34:46;92243.09;;;7.79;100.00
17521;BME280;8878;-33.370;-70.552;2023-11-18T07:37:17;92248.41;;;7.84;100.00
17521;BME280;8878;-33.370;-70.552;2023-11-18T07:39:46;92246.88;;;7.89;100.00
17521;BME280;8878;-33.370;-70.552;2023-11-18T07:42:16;92252.78;;;8.01;100.00
17521;BME280;8878;-33.370;-70.552;2023-11-18T07:44:46;92266.53;;;8.08;100.00
17521;BME280;8878;-33.370;-70.552;2023-11-18T07:47:16;92278.13;;;8.12;100.00
17521;BME280;8878;-33.370;-70.552;2023-11-18T07:49:46;92276.78;;;8.09;100.00
17521;BME280;8878;-33.370;-70.552;2023-11-18T07:52:17;92271.72;;;8.03;100.00
17521;BME280;8878;-33.370;-70.552;2023-11-18T07:54:47;92263.88;;;8.08;100.00
17521;BME280;8878;-33.370;-70.552;2023-11-18T07:57:16;92261.22;;;8.03;100.00
17521;BME280;8878;-33.370;-70.552;2023-11-18T07:59:47;92256.69;;;7.98;100.00
17521;BME280;8878;-33.370;-70.552;2023-11-18T08:02:16;92250.72;;;8.03;100.00
17521;BME280;8878;-33.370;-70.552;2023-11-18T08:04:46;92257.00;;;8.02;100.00
17521;BME280;8878;-33.370;-70.552;2023-11-18T08:07:18;92259.06;;;8.00;100.00
17521;BME280;8878;-33.370;-70.552;2023-11-18T08:09:47;92246.50;;;8.02;100.00
17521;BME280;8878;-33.370;-70.552;2023-11-18T08:12:17;92239.44;;;8.07;100.00
17521;BME280;8878;-33.370;-70.552;2023-11-18T08:14:47;92249.56;;;7.94;100.00
17521;BME280;8878;-33.370;-70.552;2023-11-18T08:17:16;92241.06;;;7.86;100.00
17521;BME280;8878;-33.370;-70.552;2023-11-18T08:19:46;92238.03;;;7.73;100.00
17521;BME280;8878;-33.370;-70.552;2023-11-18T08:22:18;92239.03;;;7.67;100.00
17521;BME280;8878;-33.370;-70.552;2023-11-18T08:24:50;92231.69;;;7.69;100.00
17521;BME280;8878;-33.370;-70.552;2023-11-18T08:27:19;92228.38;;;7.78;100.00
17521;BME280;8878;-33.370;-70.552;2023-11-18T08:29:48;92219.03;;;7.88;100.00
17521;BME280;8878;-33.370;-70.552;2023-11-18T08:32:17;92231.72;;;7.96;100.00
17521;BME280;8878;-33.370;-70.552;2023-11-18T08:34:47;92234.59;;;7.94;100.00
17521;BME280;8878;-33.370;-70.552;2023-11-18T08:37:21;92236.63;;;7.87;100.00
17521;BME280;8878;-33.370;-70.552;2023-11-18T08:39:50;92237.94;;;7.90;100.00
17521;BME280;8878;-33.370;-70.552;2023-11-18T08:42:19;92230.13;;;7.95;100.00
17521;BME280;8878;-33.370;-70.552;2023-11-18T08:44:49;92232.25;;;7.98;100.00
17521;BME280;8878;-33.370;-70.552;2023-11-18T08:47:18;92230.25;;;7.83;100.00
17521;BME280;8878;-33.370;-70.552;2023-11-18T08:49:47;92229.41;;;7.77;100.00
17521;BME280;8878;-33.370;-70.552;2023-11-18T08:52:17;92229.97;;;7.79;100.00
17521;BME280;8878;-33.370;-70.552;2023-11-18T08:54:48;92227.09;;;7.81;100.00
17521;BME280;8878;-33.370;-70.552;2023-11-18T08:57:33;92227.78;;;7.98;100.00
17521;BME280;8878;-33.370;-70.552;2023-11-18T09:00:15;92219.28;;;7.86;100.00
17521;BME280;8878;-33.370;-70.552;2023-11-18T09:03:06;92230.22;;;7.78;100.00
17521;BME280;8878;-33.370;-70.552;2023-11-18T09:05:35;92229.81;;;7.91;100.00
17521;BME280;8878;-33.370;-70.552;2023-11-18T09:08:05;92231.72;;;7.96;100.00
17521;BME280;8878;-33.370;-70.552;2023-11-18T09:10:36;92239.00;;;7.89;100.00
17521;BME280;8878;-33.370;-70.552;2023-11-18T09:13:05;92234.78;;;7.88;100.00
17521;BME280;8878;-33.370;-70.552;2023-11-18T09:15:34;92235.28;;;7.84;100.00
17521;BME280;8878;-33.370;-70.552;2023-11-18T09:18:04;92239.75;;;7.62;100.00
17521;BME280;8878;-33.370;-70.552;2023-11-18T09:20:36;92245.97;;;7.56;100.00
17521;BME280;8878;-33.370;-70.552;2023-11-18T09:23:06;92245.97;;;7.78;100.00
17521;BME280;8878;-33.370;-70.552;2023-11-18T09:25:37;92256.28;;;7.84;100.00
17521;BME280;8878;-33.370;-70.552;2023-11-18T09:28:07;92261.78;;;7.83;100.00
17521;BME280;8878;-33.370;-70.552;2023-11-18T09:30:41;92274.63;;;7.79;100.00
17521;BME280;8878;-33.370;-70.552;2023-11-18T09:33:25;92273.25;;;7.77;100.00
17521;BME280;8878;-33.370;-70.552;2023-11-18T09:36:02;92272.53;;;7.81;100.00
17521;BME280;8878;-33.370;-70.552;2023-11-18T09:38:35;92279.44;;;7.88;100.00
17521;BME280;8878;-33.370;-70.552;2023-11-18T09:41:09;92282.53;;;7.84;100.00
17521;BME280;8878;-33.370;-70.552;2023-11-18T09:43:40;92297.28;;;7.85;100.00
17521;BME280;8878;-33.370;-70.552;2023-11-18T09:46:13;92299.94;;;7.91;100.00
17521;BME280;8878;-33.370;-70.552;2023-11-18T09:48:43;92307.41;;;7.99;100.00
17521;BME280;8878;-33.370;-70.552;2023-11-18T09:51:19;92318.16;;;7.97;100.00
17521;BME280;8878;-33.370;-70.552;2023-11-18T09:53:55;92316.28;;;7.93;100.00
17521;BME280;8878;-33.370;-70.552;2023-11-18T09:56:37;92315.47;;;7.92;100.00
17521;BME280;8878;-33.370;-70.552;2023-11-18T09:59:18;92309.22;;;7.98;100.00
17521;BME280;8878;-33.370;-70.552;2023-11-18T10:01:51;92303.41;;;7.96;100.00
17521;BME280;8878;-33.370;-70.552;2023-11-18T10:04:23;92311.13;;;8.03;100.00
17521;BME280;8878;-33.370;-70.552;2023-11-18T10:06:54;92310.16;;;8.09;100.00
17521;BME280;8878;-33.370;-70.552;2023-11-18T10:09:24;92302.56;;;8.12;100.00
17521;BME280;8878;-33.370;-70.552;2023-11-18T10:12:08;92295.47;;;8.13;100.00
17521;BME280;8878;-33.370;-70.552;2023-11-18T10:14:42;92300.13;;;8.06;100.00
17521;BME280;8878;-33.370;-70.552;2023-11-18T10:17:13;92311.00;;;8.14;100.00
17521;BME280;8878;-33.370;-70.552;2023-11-18T10:19:53;92310.75;;;8.16;100.00
17521;BME280;8878;-33.370;-70.552;2023-11-18T10:22:24;92314.81;;;8.02;100.00
17521;BME280;8878;-33.370;-70.552;2023-11-18T10:24:54;92309.56;;;8.02;100.00
17521;BME280;8878;-33.370;-70.552;2023-11-18T10:27:26;92300.25;;;8.16;100.00
17521;BME280;8878;-33.370;-70.552;2023-11-18T10:29:56;92299.13;;;8.12;100.00
17521;BME280;8878;-33.370;-70.552;2023-11-18T10:32:29;92294.47;;;8.19;100.00
17521;BME280;8878;-33.370;-70.552;2023-11-18T10:35:04;92299.84;;;8.29;100.00
17521;BME280;8878;-33.370;-70.552;2023-11-18T10:37:35;92295.78;;;8.38;100.00
17521;BME280;8878;-33.370;-70.552;2023-11-18T10:40:10;92295.78;;;8.38;99.57
17521;BME280;8878;-33.370;-70.552;2023-11-18T10:42:43;92300.56;;;8.46;98.68
17521;BME280;8878;-33.370;-70.552;2023-11-18T10:45:23;92299.53;;;8.47;98.54
17521;BME280;8878;-33.370;-70.552;2023-11-18T10:47:55;92290.25;;;8.67;98.56
17521;BME280;8878;-33.370;-70.552;2023-11-18T10:50:25;92291.94;;;8.83;98.59
17521;BME280;8878;-33.370;-70.552;2023-11-18T10:52:59;92293.91;;;9.02;97.38
17521;BME280;8878;-33.370;-70.552;2023-11-18T10:55:36;92292.50;;;9.22;95.69
17521;BME280;8878;-33.370;-70.552;2023-11-18T10:58:09;92278.91;;;9.40;92.07
17521;BME280;8878;-33.370;-70.552;2023-11-18T11:00:48;92285.38;;;9.64;92.38
17521;BME280;8878;-33.370;-70.552;2023-11-18T11:03:18;92278.84;;;9.77;92.12
17521;BME280;8878;-33.370;-70.552;2023-11-18T11:05:51;92273.06;;;9.85;92.36
17521;BME280;8878;-33.370;-70.552;2023-11-18T11:08:21;92270.50;;;10.05;89.44
17521;BME280;8878;-33.370;-70.552;2023-11-18T11:10:51;92285.34;;;10.27;87.67
17521;BME280;8878;-33.370;-70.552;2023-11-18T11:13:24;92285.41;;;10.42;88.63
17521;BME280;8878;-33.370;-70.552;2023-11-18T11:15:54;92284.38;;;10.58;88.95
17521;BME280;8878;-33.370;-70.552;2023-11-18T11:18:27;92289.94;;;10.72;82.59
17521;BME280;8878;-33.370;-70.552;2023-11-18T11:21:06;92297.06;;;10.86;81.39
17521;BME280;8878;-33.370;-70.552;2023-11-18T11:23:46;92299.44;;;11.08;81.82
17521;BME280;8878;-33.370;-70.552;2023-11-18T11:26:34;92305.50;;;11.34;79.16
17521;BME280;8878;-33.370;-70.552;2023-11-18T11:29:20;92303.84;;;11.58;76.28
17521;BME280;8878;-33.370;-70.552;2023-11-18T11:32:11;92284.84;;;11.61;74.45
17521;BME280;8878;-33.370;-70.552;2023-11-18T11:34:50;92286.41;;;11.67;74.49
17521;BME280;8878;-33.370;-70.552;2023-11-18T11:37:25;92276.38;;;11.74;75.14
17521;BME280;8878;-33.370;-70.552;2023-11-18T11:39:57;92276.63;;;11.78;73.01
17521;BME280;8878;-33.370;-70.552;2023-11-18T11:42:27;92272.88;;;11.89;75.66
17521;BME280;8878;-33.370;-70.552;2023-11-18T11:44:59;92274.94;;;12.02;75.73
17521;BME280;8878;-33.370;-70.552;2023-11-18T11:47:29;92257.47;;;12.06;73.36
17521;BME280;8878;-33.370;-70.552;2023-11-18T11:50:07;92262.41;;;12.23;73.94
17521;BME280;8878;-33.370;-70.552;2023-11-18T11:52:44;92268.16;;;12.40;72.79
17521;BME280;8878;-33.370;-70.552;2023-11-18T11:55:22;92272.78;;;12.59;71.99
17521;BME280;8878;-33.370;-70.552;2023-11-18T11:57:56;92289.31;;;12.79;71.47
17521;BME280;8878;-33.370;-70.552;2023-11-18T12:00:28;92276.25;;;12.98;70.31
17521;BME280;8878;-33.370;-70.552;2023-11-18T12:03:02;92272.53;;;12.99;68.45
17521;BME280;8878;-33.370;-70.552;2023-11-18T12:05:33;92262.94;;;13.03;67.85
17521;BME280;8878;-33.370;-70.552;2023-11-18T12:08:02;92265.00;;;13.11;68.43
17521;BME280;8878;-33.370;-70.552;2023-11-18T12:10:35;92265.38;;;13.33;68.73
17521;BME280;8878;-33.370;-70.552;2023-11-18T12:13:13;92255.56;;;13.58;68.54
17521;BME280;8878;-33.370;-70.552;2023-11-18T12:15:51;92270.25;;;13.74;69.01
17521;BME280;8878;-33.370;-70.552;2023-11-18T12:18:24;92267.44;;;13.89;69.50
17521;BME280;8878;-33.370;-70.552;2023-11-18T12:20:53;92266.31;;;13.95;68.28
17521;BME280;8878;-33.370;-70.552;2023-11-18T12:23:24;92263.66;;;13.95;67.60
17521;BME280;8878;-33.370;-70.552;2023-11-18T12:25:54;92257.72;;;14.03;66.36
17521;BME280;8878;-33.370;-70.552;2023-11-18T12:28:26;92252.31;;;14.14;65.99
17521;BME280;8878;-33.370;-70.552;2023-11-18T12:30:59;92250.03;;;14.26;64.34
17521;BME280;8878;-33.370;-70.552;2023-11-18T12:34:01;92243.59;;;14.32;65.11
17521;BME280;8878;-33.370;-70.552;2023-11-18T12:36:58;92255.84;;;14.28;65.29
17521;BME280;8878;-33.370;-70.552;2023-11-18T12:43:01;92256.28;;;14.35;60.28
17521;BME280;8878;-33.370;-70.552;2023-11-18T12:48:45;92256.53;;;14.57;62.05
17521;BME280;8878;-33.370;-70.552;2023-11-18T12:51:18;92270.53;;;14.63;62.41
17521;BME280;8878;-33.370;-70.552;2023-11-18T12:53:51;92268.59;;;14.68;61.56
17521;BME280;8878;-33.370;-70.552;2023-11-18T12:56:20;92266.22;;;14.67;60.59
17521;BME280;8878;-33.370;-70.552;2023-11-18T12:58:51;92265.88;;;14.73;58.99
17521;BME280;8878;-33.370;-70.552;2023-11-18T13:01:22;92263.00;;;14.88;60.87
17521;BME280;8878;-33.370;-70.552;2023-11-18T13:03:56;92264.56;;;14.89;59.88
17521;BME280;8878;-33.370;-70.552;2023-11-18T13:06:28;92274.09;;;15.09;59.85